Time;durP1;ratioP1;P1;durP2;ratioP2;P2;SDS_P1;SDS_P2;PMS_P1;PMS_P2;Temp;Humidity;BMP_temperature;BMP_pressure;BME280_temperature;BME280_humidity;BME280_pressure;Samples;Min_cycle;Max_cycle;Signal;HPM_P1;HPM_P2
2023/10/21 00:00:21;;;;;;;5.72;1.33;;;10.70;99.90;;;;;;5056156;28;20128;-51
2023/10/21 00:02:47;;;;;;;8.15;1.15;;;10.70;99.90;;;;;;5056646;28;20037;-50
2023/10/21 00:05:12;;;;;;;7.57;1.20;;;10.70;99.90;;;;;;5056715;28;20108;-51
2023/10/21 00:07:38;;;;;;;4.00;1.02;;;10.70;99.90;;;;;;5056401;28;20059;-49
2023/10/21 00:10:06;;;;;;;5.10;1.13;;;10.70;99.90;;;;;;5056468;28;20033;-51
2023/10/21 00:12:33;;;;;;;6.60;1.40;;;10.80;99.90;;;;;;5055136;28;20051;-50
2023/10/21 00:14:59;;;;;;;6.20;1.10;;;10.80;99.90;;;;;;5055912;28;20053;-53
2023/10/21 00:17:28;;;;;;;7.47;1.05;;;10.80;99.90;;;;;;5055439;28;20406;-51
2023/10/21 00:19:54;;;;;;;11.10;1.30;;;10.90;99.90;;;;;;5056203;28;20041;-52
2023/10/21 00:22:19;;;;;;;5.70;1.10;;;10.90;99.90;;;;;;5055890;28;20021;-51
2023/10/21 00:24:45;;;;;;;4.47;1.30;;;10.90;99.90;;;;;;5055977;28;20025;-52
2023/10/21 00:27:11;;;;;;;5.18;1.20;;;10.90;99.90;;;;;;5056000;28;20036;-52
2023/10/21 00:29:37;;;;;;;4.57;1.17;;;10.90;99.90;;;;;;5056151;28;20029;-51
2023/10/21 00:32:04;;;;;;;4.72;1.10;;;10.90;99.90;;;;;;5055594;28;20458;-51
2023/10/21 00:34:30;;;;;;;5.47;1.17;;;10.90;99.90;;;;;;5055754;28;20032;-52
2023/10/21 00:36:56;;;;;;;8.85;1.67;;;10.90;99.90;;;;;;5055816;28;20060;-51
2023/10/21 00:39:22;;;;;;;7.35;1.23;;;10.90;99.90;;;;;;5055885;28;20021;-52
2023/10/21 00:41:47;;;;;;;7.35;1.10;;;10.90;99.90;;;;;;5055877;28;20123;-50
2023/10/21 00:44:13;;;;;;;9.35;1.40;;;10.90;99.90;;;;;;5056584;28;20162;-49
2023/10/21 00:46:42;;;;;;;9.55;1.35;;;11.00;99.90;;;;;;5055608;28;20041;-49
2023/10/21 00:49:08;;;;;;;9.40;1.10;;;11.00;99.90;;;;;;5054508;28;20361;-51
2023/10/21 00:51:35;;;;;;;7.68;1.27;;;11.00;99.90;;;;;;5055525;28;20077;-51
2023/10/21 00:54:01;;;;;;;5.93;1.10;;;11.00;99.90;;;;;;5055400;28;20033;-51
2023/10/21 00:56:27;;;;;;;3.65;1.17;;;11.00;99.90;;;;;;5055752;28;20340;-50
2023/10/21 00:58:52;;;;;;;5.03;1.45;;;11.00;99.90;;;;;;5055543;28;20411;-51
2023/10/21 01:01:18;;;;;;;6.45;1.40;;;11.00;99.90;;;;;;5054359;28;20108;-51
2023/10/21 01:03:44;;;;;;;10.60;1.20;;;11.00;99.90;;;;;;5055112;28;20029;-51
2023/10/21 01:06:10;;;;;;;7.93;1.45;;;11.00;99.90;;;;;;5037663;28;20134;-52
2023/10/21 01:08:42;;;;;;;6.78;1.08;;;11.10;99.90;;;;;;5055133;28;20025;-51
2023/10/21 01:11:09;;;;;;;6.75;1.10;;;11.10;99.90;;;;;;5055330;28;20037;-48
2023/10/21 01:13:34;;;;;;;7.07;1.40;;;11.10;99.90;;;;;;5055363;28;20094;-51
2023/10/21 01:16:00;;;;;;;5.75;1.05;;;11.10;99.90;;;;;;5055237;28;20029;-51
2023/10/21 01:18:30;;;;;;;5.10;1.00;;;11.10;99.90;;;;;;5055437;28;20147;-52
2023/10/21 01:20:56;;;;;;;2.25;1.20;;;11.10;99.90;;;;;;5054730;28;20033;-51
2023/10/21 01:23:21;;;;;;;4.57;0.98;;;11.10;99.90;;;;;;5055140;28;20045;-51
2023/10/21 01:25:47;;;;;;;9.60;1.38;;;11.10;99.90;;;;;;5055235;28;20494;-51
2023/10/21 01:28:14;;;;;;;8.95;1.30;;;11.10;99.90;;;;;;5055124;28;20029;-51
2023/10/21 01:30:39;;;;;;;6.28;1.10;;;11.10;99.90;;;;;;5055050;28;20393;-49
2023/10/21 01:33:05;;;;;;;5.93;1.02;;;11.10;99.90;;;;;;5054740;28;20033;-48
2023/10/21 01:35:30;;;;;;;7.25;1.15;;;11.10;99.90;;;;;;5054561;28;20495;-49
2023/10/21 01:37:56;;;;;;;10.35;1.45;;;11.20;99.90;;;;;;5054972;28;20094;-51
2023/10/21 01:40:22;;;;;;;7.65;1.23;;;11.20;99.90;;;;;;5054733;28;20509;-51
2023/10/21 01:42:47;;;;;;;3.85;1.00;;;11.20;99.90;;;;;;5055017;28;20025;-52
2023/10/21 01:45:13;;;;;;;0.88;0.50;;;11.20;99.90;;;;;;5054861;28;20063;-48
2023/10/21 01:47:39;;;;;;;4.45;0.95;;;11.20;99.90;;;;;;5054861;28;20061;-51
2023/10/21 01:50:08;;;;;;;6.13;0.98;;;11.20;99.90;;;;;;5054824;28;20446;-50
2023/10/21 01:52:35;;;;;;;10.32;1.33;;;11.20;99.90;;;;;;5054397;28;20032;-52
2023/10/21 01:55:05;;;;;;;6.72;1.00;;;11.20;99.90;;;;;;5054591;28;20040;-50
2023/10/21 01:57:32;;;;;;;6.00;1.20;;;11.20;99.90;;;;;;5054707;28;20421;-51
2023/10/21 02:00:01;;;;;;;9.70;1.90;;;11.20;99.90;;;;;;5054819;28;20040;-50
2023/10/21 02:02:27;;;;;;;8.88;1.65;;;11.20;99.90;;;;;;5054633;28;20040;-49
2023/10/21 02:04:52;;;;;;;6.55;1.00;;;11.20;99.90;;;;;;5056381;28;20342;-49
2023/10/21 02:07:19;;;;;;;4.80;1.17;;;11.20;99.90;;;;;;5058328;28;20512;-48
2023/10/21 02:09:45;;;;;;;3.65;1.40;;;11.20;99.90;;;;;;5057676;28;20040;-50
2023/10/21 02:12:10;;;;;;;8.27;1.10;;;11.10;99.90;;;;;;5058791;28;20354;-48
2023/10/21 02:14:36;;;;;;;5.55;0.95;;;11.10;99.90;;;;;;5057457;28;20033;-50
2023/10/21 02:17:02;;;;;;;4.03;1.15;;;11.20;99.90;;;;;;5058494;28;20044;-50
2023/10/21 02:19:27;;;;;;;4.97;1.10;;;11.10;99.90;;;;;;5057478;28;20114;-51
2023/10/21 02:21:53;;;;;;;7.40;1.33;;;11.20;99.90;;;;;;5058490;28;20037;-51
2023/10/21 02:24:19;;;;;;;5.13;1.00;;;11.20;99.90;;;;;;5058381;28;20108;-51
2023/10/21 02:26:45;;;;;;;5.38;1.17;;;11.20;99.90;;;;;;5058189;28;20374;-52
2023/10/21 02:29:11;;;;;;;2.58;0.90;;;11.10;99.90;;;;;;5058362;28;20044;-52
2023/10/21 02:31:37;;;;;;;3.03;0.80;;;11.20;99.90;;;;;;5058342;28;20041;-51
2023/10/21 02:34:03;;;;;;;1.83;0.80;;;11.20;99.90;;;;;;5057238;28;20043;-52
2023/10/21 02:36:28;;;;;;;6.70;1.00;;;11.20;99.90;;;;;;5058283;28;20033;-51
2023/10/21 02:38:54;;;;;;;3.42;1.23;;;11.20;99.90;;;;;;5057770;28;20037;-52
2023/10/21 02:41:20;;;;;;;7.05;1.20;;;11.20;99.90;;;;;;5058279;28;20025;-51
2023/10/21 02:43:46;;;;;;;5.35;1.05;;;11.20;99.90;;;;;;5058284;28;20025;-51
2023/10/21 02:46:13;;;;;;;4.55;1.52;;;11.20;99.90;;;;;;5058133;28;20362;-51
2023/10/21 02:48:43;;;;;;;5.05;1.00;;;11.20;99.90;;;;;;5058043;28;20059;-51
2023/10/21 02:51:13;;;;;;;6.00;1.10;;;11.20;99.90;;;;;;5057074;28;20041;-52
2023/10/21 02:53:39;;;;;;;2.15;0.82;;;11.20;99.90;;;;;;5058087;28;20032;-51
2023/10/21 02:56:06;;;;;;;6.95;1.10;;;11.20;99.90;;;;;;5058013;28;20029;-51
2023/10/21 02:58:32;;;;;;;6.97;1.48;;;11.20;99.90;;;;;;5057668;28;20347;-51
2023/10/21 03:01:02;;;;;;;2.65;0.80;;;11.20;99.90;;;;;;5057574;28;20109;-51
2023/10/21 03:03:28;;;;;;;3.28;0.80;;;11.20;99.90;;;;;;5056655;28;20048;-52
2023/10/21 03:05:53;;;;;;;5.07;0.95;;;11.20;99.90;;;;;;5057483;28;20045;-51
2023/10/21 03:08:19;;;;;;;5.63;0.90;;;11.20;99.90;;;;;;5058215;28;20044;-51
2023/10/21 03:10:45;;;;;;;5.65;1.00;;;11.20;99.90;;;;;;5057424;28;20036;-52
2023/10/21 03:13:10;;;;;;;3.53;0.90;;;11.20;99.90;;;;;;5057613;28;20047;-52
2023/10/21 03:15:36;;;;;;;4.90;1.00;;;11.20;99.90;;;;;;5055902;28;20082;-52
2023/10/21 03:18:02;;;;;;;2.85;0.73;;;11.10;99.90;;;;;;5057548;28;20033;-52
2023/10/21 03:20:32;;;;;;;5.72;1.15;;;11.10;99.90;;;;;;5057362;28;20090;-51
2023/10/21 03:22:57;;;;;;;5.72;0.90;;;11.20;99.90;;;;;;5057013;28;20029;-51
2023/10/21 03:25:23;;;;;;;3.95;0.93;;;11.20;99.90;;;;;;5057293;28;20029;-52
2023/10/21 03:27:49;;;;;;;6.90;1.00;;;11.20;99.90;;;;;;5056382;28;20029;-48
2023/10/21 03:30:14;;;;;;;3.80;0.82;;;11.20;99.90;;;;;;5057372;28;20040;-51
2023/10/21 03:32:40;;;;;;;4.03;0.85;;;11.20;99.90;;;;;;5057228;28;20386;-48
2023/10/21 03:35:06;;;;;;;5.45;1.00;;;11.20;99.90;;;;;;5057257;28;20037;-49
2023/10/21 03:37:34;;;;;;;6.43;1.08;;;11.20;99.90;;;;;;5057073;28;20452;-49
2023/10/21 03:39:59;;;;;;;4.82;1.15;;;11.20;99.90;;;;;;5057092;28;20359;-47
2023/10/21 03:42:26;;;;;;;3.53;0.82;;;11.20;99.90;;;;;;5057050;28;20048;-52
2023/10/21 03:44:51;;;;;;;6.07;0.90;;;11.20;99.90;;;;;;5056850;28;20473;-48
2023/10/21 03:47:17;;;;;;;4.95;1.08;;;11.20;99.90;;;;;;5056880;28;20049;-51
2023/10/21 03:49:43;;;;;;;4.57;1.00;;;11.20;99.90;;;;;;5056990;28;20116;-51
2023/10/21 03:52:08;;;;;;;3.67;1.08;;;11.20;99.90;;;;;;5056881;28;20063;-50
2023/10/21 03:54:34;;;;;;;7.43;0.95;;;11.20;99.90;;;;;;5056583;28;20041;-51
2023/10/21 03:57:00;;;;;;;5.32;1.10;;;11.20;99.90;;;;;;5056356;28;20115;-51
2023/10/21 03:59:25;;;;;;;3.97;0.90;;;11.20;99.90;;;;;;5056655;28;20374;-51
2023/10/21 04:01:51;;;;;;;2.33;0.82;;;11.20;99.90;;;;;;5056728;28;20094;-51
2023/10/21 04:04:17;;;;;;;4.45;0.80;;;11.10;99.90;;;;;;5056376;28;20507;-51
2023/10/21 04:06:42;;;;;;;5.70;1.10;;;11.10;99.90;;;;;;5056324;28;20053;-50
2023/10/21 04:09:09;;;;;;;3.55;1.33;;;11.10;99.90;;;;;;5056436;28;20033;-51
2023/10/21 04:11:35;;;;;;;3.47;1.02;;;11.10;99.90;;;;;;5056615;28;20045;-49
2023/10/21 04:14:01;;;;;;;6.97;1.08;;;11.10;99.90;;;;;;5055854;28;20492;-48
2023/10/21 04:16:27;;;;;;;5.05;0.93;;;11.10;99.90;;;;;;5056330;28;20051;-50
2023/10/21 04:18:52;;;;;;;5.18;0.85;;;11.20;99.90;;;;;;5056393;28;20040;-49
2023/10/21 04:21:19;;;;;;;3.75;0.80;;;11.10;99.90;;;;;;5056587;28;20032;-51
2023/10/21 04:23:45;;;;;;;3.33;0.70;;;11.10;99.90;;;;;;5056309;28;20086;-48
2023/10/21 04:26:10;;;;;;;4.28;0.90;;;11.10;99.90;;;;;;5056139;28;20032;-51
2023/10/21 04:28:36;;;;;;;2.70;0.85;;;11.10;99.90;;;;;;5055162;28;20029;-51
2023/10/21 04:31:02;;;;;;;3.05;0.90;;;11.20;99.90;;;;;;5055990;28;20052;-51
2023/10/21 04:33:28;;;;;;;2.53;0.70;;;11.10;99.90;;;;;;5056281;28;20146;-49
2023/10/21 04:35:54;;;;;;;2.67;1.10;;;11.10;99.90;;;;;;5056043;28;20033;-49
2023/10/21 04:38:20;;;;;;;3.85;1.20;;;11.20;99.90;;;;;;5055669;28;20036;-47
2023/10/21 04:40:46;;;;;;;4.10;0.82;;;11.20;99.90;;;;;;5055899;28;20025;-51
2023/10/21 04:43:11;;;;;;;3.92;0.80;;;11.10;99.90;;;;;;5055740;28;20052;-49
2023/10/21 04:45:37;;;;;;;4.25;1.20;;;11.10;99.90;;;;;;5055849;28;20454;-49
2023/10/21 04:48:03;;;;;;;3.20;1.02;;;11.10;99.90;;;;;;5055832;28;20450;-51
2023/10/21 04:50:29;;;;;;;2.63;0.88;;;11.10;99.90;;;;;;5055943;28;20338;-51
2023/10/21 04:52:54;;;;;;;2.22;1.10;;;11.10;99.90;;;;;;5054541;28;20112;-50
2023/10/21 04:55:21;;;;;;;1.60;0.80;;;11.10;99.90;;;;;;5054684;28;20049;-51
2023/10/21 04:57:46;;;;;;;3.83;0.88;;;11.20;99.90;;;;;;5055530;28;20066;-51
2023/10/21 05:00:14;;;;;;;4.47;1.30;;;11.10;99.90;;;;;;5054986;28;20037;-51
2023/10/21 05:02:41;;;;;;;2.85;1.80;;;11.10;99.90;;;;;;5055239;28;20508;-51
2023/10/21 05:05:07;;;;;;;5.57;0.90;;;11.10;99.90;;;;;;5055282;28;20451;-51
2023/10/21 05:07:32;;;;;;;6.88;2.00;;;11.10;99.90;;;;;;5055172;28;20051;-51
2023/10/21 05:09:58;;;;;;;4.85;1.20;;;11.10;99.90;;;;;;5055473;28;20107;-51
2023/10/21 05:12:24;;;;;;;2.85;1.10;;;11.10;99.90;;;;;;5054328;28;20032;-51
2023/10/21 05:14:49;;;;;;;2.83;0.77;;;11.10;99.90;;;;;;5055504;28;20040;-51
2023/10/21 05:17:15;;;;;;;3.13;0.80;;;11.10;99.90;;;;;;5055213;28;20538;-47
2023/10/21 05:19:40;;;;;;;3.90;0.70;;;11.10;99.90;;;;;;5055250;28;20108;-51
2023/10/21 05:22:06;;;;;;;4.13;0.98;;;11.10;99.90;;;;;;5055130;28;20029;-51
2023/10/21 05:24:32;;;;;;;5.57;0.80;;;11.10;99.90;;;;;;5053970;28;20090;-51
2023/10/21 05:26:58;;;;;;;2.70;0.80;;;11.10;99.90;;;;;;5054991;28;20116;-51
2023/10/21 05:29:23;;;;;;;3.13;1.00;;;11.10;99.90;;;;;;5055084;28;20029;-52
2023/10/21 05:31:50;;;;;;;4.47;0.90;;;11.10;99.90;;;;;;5053695;28;20386;-51
2023/10/21 05:34:19;;;;;;;9.02;0.98;;;11.10;99.90;;;;;;5055025;28;20045;-51
2023/10/21 05:36:45;;;;;;;2.70;0.80;;;11.10;99.90;;;;;;5054723;28;20465;-51
2023/10/21 05:39:14;;;;;;;4.60;0.88;;;11.10;99.90;;;;;;5054694;28;20045;-51
2023/10/21 05:41:42;;;;;;;3.42;0.90;;;11.10;99.90;;;;;;5054627;28;20037;-51
2023/10/21 05:44:08;;;;;;;2.10;0.75;;;11.10;99.90;;;;;;5053675;28;20056;-51
2023/10/21 05:46:34;;;;;;;2.20;0.80;;;11.10;99.90;;;;;;5054831;28;20155;-52
2023/10/21 05:49:00;;;;;;;2.60;0.70;;;11.10;99.90;;;;;;5053685;28;20029;-51
2023/10/21 05:51:25;;;;;;;5.35;1.10;;;11.10;99.90;;;;;;5054639;28;20405;-51
2023/10/21 05:53:52;;;;;;;2.35;0.70;;;11.10;99.90;;;;;;5054827;28;20465;-51
2023/10/21 05:56:17;;;;;;;2.72;0.93;;;11.10;99.90;;;;;;5054406;28;20186;-51
2023/10/21 05:58:43;;;;;;;3.15;1.30;;;11.10;99.90;;;;;;5053734;28;20051;-52
2023/10/21 06:01:09;;;;;;;2.05;0.70;;;11.10;99.90;;;;;;5054583;28;20044;-50
2023/10/21 06:03:35;;;;;;;2.28;0.60;;;11.10;99.90;;;;;;5054640;28;20033;-51
2023/10/21 06:06:02;;;;;;;2.75;0.60;;;11.10;99.90;;;;;;5054359;28;20067;-51
2023/10/21 06:08:29;;;;;;;4.38;0.80;;;11.10;99.90;;;;;;5054211;28;20137;-51
2023/10/21 06:10:54;;;;;;;3.22;0.70;;;11.10;99.90;;;;;;5054328;28;20052;-51
2023/10/21 06:13:20;;;;;;;1.95;0.60;;;11.00;99.90;;;;;;5054518;28;20025;-51
2023/10/21 06:15:48;;;;;;;0.75;0.60;;;11.00;99.90;;;;;;5053599;28;20037;-52
2023/10/21 06:18:13;;;;;;;3.75;0.85;;;11.00;99.90;;;;;;5054121;28;20037;-51
2023/10/21 06:20:39;;;;;;;2.03;0.80;;;11.00;99.90;;;;;;5053108;28;20484;-51
2023/10/21 06:23:05;;;;;;;1.13;0.68;;;11.00;99.90;;;;;;5054444;28;20104;-51
2023/10/21 06:25:31;;;;;;;1.15;0.73;;;11.00;99.90;;;;;;5054510;28;20044;-52
2023/10/21 06:27:58;;;;;;;2.85;0.70;;;10.90;99.90;;;;;;5054355;28;20044;-51
2023/10/21 06:30:24;;;;;;;4.90;1.13;;;10.90;99.90;;;;;;5053108;28;20041;-50
2023/10/21 06:32:49;;;;;;;3.03;0.60;;;10.90;99.90;;;;;;5054352;28;20037;-51
2023/10/21 06:35:15;;;;;;;3.88;0.80;;;10.80;99.90;;;;;;5053999;28;20060;-51
2023/10/21 06:37:41;;;;;;;2.97;0.90;;;10.80;99.90;;;;;;5054411;28;20112;-51
2023/10/21 06:40:07;;;;;;;2.63;0.80;;;10.80;99.90;;;;;;5054246;28;20450;-51
2023/10/21 06:42:33;;;;;;;3.95;0.98;;;10.70;99.90;;;;;;5053887;28;20051;-51
2023/10/21 06:44:59;;;;;;;2.30;0.70;;;10.80;99.90;;;;;;5054136;28;20057;-49
2023/10/21 06:47:24;;;;;;;3.10;1.48;;;10.80;99.90;;;;;;5053999;28;20037;-48
2023/10/21 06:49:50;;;;;;;3.60;0.73;;;10.80;99.90;;;;;;5053780;28;20064;-51
2023/10/21 06:52:17;;;;;;;2.72;0.70;;;10.80;99.90;;;;;;5058023;28;20450;-52
2023/10/21 06:54:44;;;;;;;1.23;0.60;;;10.90;99.90;;;;;;5057885;28;20116;-50
2023/10/21 06:57:09;;;;;;;2.10;0.60;;;10.80;99.90;;;;;;5056825;28;20032;-52
2023/10/21 06:59:35;;;;;;;3.22;0.88;;;10.80;99.90;;;;;;5057875;28;20033;-52
2023/10/21 07:02:01;;;;;;;3.40;0.80;;;10.70;99.90;;;;;;5057674;28;20048;-51
2023/10/21 07:04:26;;;;;;;4.18;1.00;;;10.60;99.90;;;;;;5057708;28;20033;-51
2023/10/21 07:06:52;;;;;;;4.47;0.98;;;10.70;99.90;;;;;;5057194;28;20079;-51
2023/10/21 07:09:18;;;;;;;2.78;0.88;;;10.60;99.90;;;;;;5056899;28;20328;-51
2023/10/21 07:11:43;;;;;;;2.33;1.38;;;10.60;99.90;;;;;;5057526;28;20029;-51
2023/10/21 07:14:10;;;;;;;6.22;1.80;;;10.60;99.90;;;;;;5057499;28;20086;-50
2023/10/21 07:16:36;;;;;;;6.13;1.30;;;10.70;99.90;;;;;;5057289;28;20040;-49
2023/10/21 07:19:02;;;;;;;1.92;0.70;;;10.70;99.90;;;;;;5057270;28;20458;-51
2023/10/21 07:21:29;;;;;;;5.13;0.90;;;10.70;99.90;;;;;;5056958;28;20131;-49
2023/10/21 07:23:54;;;;;;;3.55;1.52;;;10.70;99.90;;;;;;5056047;28;20477;-50
2023/10/21 07:26:20;;;;;;;3.47;1.00;;;10.70;99.90;;;;;;5057142;28;20029;-50
2023/10/21 07:28:46;;;;;;;3.50;0.82;;;10.70;99.90;;;;;;5057116;28;20040;-48
2023/10/21 07:31:12;;;;;;;2.72;0.80;;;10.70;99.90;;;;;;5057018;28;20116;-49
2023/10/21 07:33:38;;;;;;;13.10;4.10;;;10.80;99.90;;;;;;5055804;28;20470;-51
2023/10/21 07:36:04;;;;;;;5.07;1.00;;;10.80;99.90;;;;;;5055800;28;20044;-49
2023/10/21 07:38:30;;;;;;;4.13;0.90;;;10.70;99.90;;;;;;5056934;28;20050;-49
2023/10/21 07:40:56;;;;;;;3.28;1.00;;;10.70;99.90;;;;;;5039035;28;20509;-49
2023/10/21 07:43:22;;;;;;;3.55;0.88;;;10.70;99.90;;;;;;5056842;28;20037;-51
2023/10/21 07:45:48;;;;;;;3.65;1.13;;;10.80;99.90;;;;;;5056917;28;20037;-51
2023/10/21 07:48:14;;;;;;;1.90;1.00;;;10.80;99.90;;;;;;5056581;28;20324;-51
2023/10/21 07:50:41;;;;;;;5.00;1.65;;;10.80;99.90;;;;;;5055761;28;20037;-48
2023/10/21 07:53:07;;;;;;;3.35;1.13;;;10.80;99.90;;;;;;5056137;28;20029;-49
2023/10/21 07:55:33;;;;;;;5.93;1.10;;;10.90;99.90;;;;;;5056684;28;20029;-48
2023/10/21 07:58:00;;;;;;;3.33;2.22;;;10.90;99.90;;;;;;5056616;28;20037;-51
2023/10/21 08:00:26;;;;;;;2.13;0.90;;;10.90;99.90;;;;;;5055410;28;20430;-51
2023/10/21 08:02:51;;;;;;;6.32;1.20;;;11.00;99.90;;;;;;5056494;28;20465;-51
2023/10/21 08:05:17;;;;;;;5.13;0.90;;;10.90;99.90;;;;;;5056393;28;20048;-51
2023/10/21 08:07:43;;;;;;;2.83;1.25;;;10.90;99.90;;;;;;5055990;28;20470;-51
2023/10/21 08:10:09;;;;;;;4.13;1.00;;;11.00;99.90;;;;;;5056363;28;20037;-51
2023/10/21 08:12:35;;;;;;;2.67;0.80;;;11.00;99.90;;;;;;5056194;28;20039;-51
2023/10/21 08:15:07;;;;;;;3.70;0.95;;;11.00;99.90;;;;;;5056398;28;20037;-51
2023/10/21 08:17:33;;;;;;;7.63;1.58;;;11.00;99.90;;;;;;5055141;28;20414;-48
2023/10/21 08:19:59;;;;;;;4.20;0.70;;;11.00;99.90;;;;;;5056272;28;20029;-50
2023/10/21 08:22:26;;;;;;;3.80;0.90;;;11.10;99.90;;;;;;5054795;28;20029;-51
2023/10/21 08:24:52;;;;;;;3.35;1.00;;;11.10;99.90;;;;;;5055842;28;20425;-51
2023/10/21 08:27:18;;;;;;;2.22;1.10;;;11.20;99.90;;;;;;5056054;28;20385;-51
2023/10/21 08:29:45;;;;;;;2.55;1.05;;;11.20;99.90;;;;;;5056064;28;20087;-47
2023/10/21 08:32:11;;;;;;;5.90;1.70;;;11.20;99.90;;;;;;5054849;28;20051;-51
2023/10/21 08:34:36;;;;;;;1.50;0.80;;;11.30;99.90;;;;;;5055860;28;20354;-50
2023/10/21 08:37:03;;;;;;;6.65;1.58;;;11.30;99.90;;;;;;5055791;28;20033;-49
2023/10/21 08:39:29;;;;;;;3.47;0.80;;;11.30;99.90;;;;;;5055358;28;20037;-51
2023/10/21 08:41:55;;;;;;;4.80;0.80;;;11.30;99.90;;;;;;5054659;28;20037;-51
2023/10/21 08:44:21;;;;;;;3.35;1.52;;;11.30;99.90;;;;;;5055421;28;20104;-51
2023/10/21 08:46:47;;;;;;;5.88;2.20;;;11.30;99.90;;;;;;5054428;28;20455;-50
2023/10/21 08:49:12;;;;;;;1.23;0.75;;;11.40;99.90;;;;;;5037865;28;20029;-51
2023/10/21 08:51:38;;;;;;;3.80;1.00;;;11.50;99.90;;;;;;5055534;28;20025;-51
2023/10/21 08:54:04;;;;;;;4.30;1.00;;;11.50;99.90;;;;;;5054296;28;20446;-51
2023/10/21 08:56:33;;;;;;;3.88;0.70;;;11.50;99.90;;;;;;5037603;28;20090;-52
2023/10/21 08:59:00;;;;;;;7.28;1.00;;;11.50;99.90;;;;;;5053972;28;20033;-52
2023/10/21 09:01:26;;;;;;;2.95;1.10;;;11.50;99.90;;;;;;5055075;28;20044;-50
2023/10/21 09:03:52;;;;;;;2.33;0.85;;;11.60;99.90;;;;;;5055157;28;20029;-51
2023/10/21 09:06:20;;;;;;;3.60;0.90;;;11.70;99.90;;;;;;5055147;28;20045;-51
2023/10/21 09:08:47;;;;;;;5.15;1.08;;;11.70;99.90;;;;;;5054997;28;20510;-50
2023/10/21 09:11:20;;;;;;;5.97;1.58;;;11.70;99.90;;;;;;5055017;28;20037;-51
2023/10/21 09:13:47;;;;;;;2.80;0.90;;;11.80;99.90;;;;;;5054872;28;20037;-51
2023/10/21 09:16:20;;;;;;;5.18;1.10;;;11.90;99.90;;;;;;5054926;28;20041;-51
2023/10/21 09:19:04;;;;;;;4.03;1.20;;;12.30;99.90;;;;;;5054830;28;20037;-51
2023/10/21 09:21:36;;;;;;;3.10;1.10;;;12.90;99.90;;;;;;5054918;28;20029;-51
2023/10/21 09:24:06;;;;;;;4.55;0.80;;;14.30;99.90;;;;;;5054785;28;20033;-51
2023/10/21 09:26:35;;;;;;;4.47;0.88;;;15.50;99.90;;;;;;5054803;28;20119;-50
2023/10/21 09:29:08;;;;;;;2.63;0.80;;;15.60;99.90;;;;;;5054792;28;20037;-51
2023/10/21 09:31:54;;;;;;;5.05;1.10;;;15.60;99.90;;;;;;5054638;28;20182;-52
2023/10/21 09:34:33;;;;;;;2.33;0.73;;;15.20;99.90;;;;;;5054379;28;20029;-50
2023/10/21 09:37:00;;;;;;;3.55;0.90;;;14.60;99.90;;;;;;5054491;28;20044;-52
2023/10/21 09:39:28;;;;;;;6.82;1.48;;;14.10;99.90;;;;;;5054640;28;20079;-52
2023/10/21 09:41:54;;;;;;;4.65;0.95;;;13.50;99.90;;;;;;5054337;28;20025;-52
2023/10/21 09:44:20;;;;;;;4.55;2.17;;;13.10;99.90;;;;;;5053123;28;20033;-51
2023/10/21 09:46:46;;;;;;;2.08;0.82;;;12.90;99.90;;;;;;5054186;28;20095;-48
2023/10/21 09:49:16;;;;;;;4.57;0.90;;;12.80;99.90;;;;;;5054529;28;20357;-50
2023/10/21 09:51:51;;;;;;;2.13;0.80;;;12.70;99.90;;;;;;5053482;28;20041;-50
2023/10/21 09:54:20;;;;;;;4.38;2.22;;;12.40;99.90;;;;;;5054489;28;20037;-51
2023/10/21 09:56:46;;;;;;;1.48;0.70;;;12.50;99.90;;;;;;5054565;28;20029;-50
2023/10/21 09:59:12;;;;;;;1.98;1.00;;;13.00;99.90;;;;;;5053401;28;20041;-51
2023/10/21 10:01:39;;;;;;;3.72;1.00;;;13.00;99.90;;;;;;5036437;28;20037;-51
2023/10/21 10:04:09;;;;;;;5.00;1.67;;;13.00;99.90;;;;;;5054064;28;20025;-51
2023/10/21 10:06:37;;;;;;;1.92;1.00;;;13.20;99.90;;;;;;5053775;28;20073;-50
2023/10/21 10:09:06;;;;;;;3.92;0.88;;;13.80;99.90;;;;;;5036889;28;20033;-50
2023/10/21 10:11:32;;;;;;;6.03;1.30;;;14.10;99.90;;;;;;5036955;28;20032;-51
2023/10/21 10:13:57;;;;;;;6.45;1.02;;;14.30;99.90;;;;;;5052481;28;20037;-51
2023/10/21 10:16:24;;;;;;;2.80;1.02;;;14.30;99.90;;;;;;5054069;28;20037;-51
2023/10/21 10:18:56;;;;;;;5.68;1.98;;;14.10;99.90;;;;;;5053968;28;20028;-50
2023/10/21 10:21:22;;;;;;;3.70;1.00;;;14.10;99.90;;;;;;5053957;28;20125;-51
2023/10/21 10:23:51;;;;;;;2.20;0.70;;;14.00;99.90;;;;;;5054855;28;20111;-52
2023/10/21 10:26:37;;;;;;;2.85;1.00;;;13.90;99.90;;;;;;5054952;28;20043;-51
2023/10/21 10:29:19;;;;;;;2.83;1.00;;;13.90;99.90;;;;;;5057339;28;20378;-51
2023/10/21 10:31:45;;;;;;;3.35;0.80;;;14.00;99.90;;;;;;5056718;28;20041;-51
2023/10/21 10:34:11;;;;;;;2.70;1.30;;;13.80;99.90;;;;;;5057850;28;20437;-52
2023/10/21 10:36:36;;;;;;;2.85;1.33;;;13.80;99.90;;;;;;5057725;28;20033;-52
2023/10/21 10:39:04;;;;;;;3.00;1.63;;;13.80;99.90;;;;;;5057598;28;20110;-52
2023/10/21 10:41:30;;;;;;;13.57;6.90;;;14.10;99.90;;;;;;5056645;28;20403;-51
2023/10/21 10:43:56;;;;;;;1.45;0.70;;;14.50;99.90;;;;;;5056507;28;20108;-51
2023/10/21 10:46:24;;;;;;;2.67;1.23;;;14.60;99.90;;;;;;5039971;28;20135;-51
2023/10/21 10:48:50;;;;;;;1.70;0.93;;;14.50;99.90;;;;;;5039783;28;20025;-52
2023/10/21 10:51:17;;;;;;;2.60;0.90;;;14.20;99.90;;;;;;5057347;28;20037;-51
2023/10/21 10:53:52;;;;;;;2.17;0.90;;;14.60;99.90;;;;;;5056234;28;20033;-50
2023/10/21 10:56:20;;;;;;;2.67;0.88;;;15.00;99.90;;;;;;5056408;28;20098;-49
2023/10/21 10:58:46;;;;;;;1.15;0.60;;;15.50;99.90;;;;;;5056014;28;20520;-52
2023/10/21 11:01:25;;;;;;;3.85;0.82;;;15.90;99.90;;;;;;5056737;28;20036;-51
2023/10/21 11:03:58;;;;;;;1.02;0.60;;;17.30;99.90;;;;;;5056251;28;20347;-51
2023/10/21 11:06:26;;;;;;;1.25;0.60;;;18.60;86.80;;;;;;5056566;28;20075;-51
2023/10/21 11:08:52;;;;;;;6.35;2.75;;;19.50;83.50;;;;;;5056320;28;20029;-52
2023/10/21 11:11:17;;;;;;;2.63;0.88;;;20.50;68.10;;;;;;5057120;28;20434;-52
2023/10/21 11:13:43;;;;;;;1.85;0.90;;;20.90;66.80;;;;;;5057015;28;20458;-53
2023/10/21 11:16:11;;;;;;;2.20;0.90;;;21.20;60.80;;;;;;5056809;28;20086;-51
2023/10/21 11:18:37;;;;;;;3.17;1.00;;;21.20;55.20;;;;;;5056015;28;20466;-52
2023/10/21 11:21:02;;;;;;;0.88;0.80;;;21.20;56.20;;;;;;5056853;28;20044;-52
2023/10/21 11:23:29;;;;;;;2.90;1.33;;;21.60;54.60;;;;;;5055392;28;20033;-51
2023/10/21 11:25:56;;;;;;;1.42;1.13;;;22.10;52.40;;;;;;5056815;28;20473;-52
2023/10/21 11:28:22;;;;;;;7.25;3.35;;;22.30;49.80;;;;;;5055700;28;20025;-51
2023/10/21 11:30:48;;;;;;;4.57;1.65;;;22.40;51.90;;;;;;5039069;28;20028;-49
2023/10/21 11:33:13;;;;;;;3.08;1.20;;;21.90;51.30;;;;;;5055214;28;20430;-50
2023/10/21 11:35:44;;;;;;;4.68;1.13;;;20.30;61.00;;;;;;5056417;28;20033;-52
2023/10/21 11:38:14;;;;;;;3.05;0.80;;;18.80;81.60;;;;;;5056333;28;20029;-49
2023/10/21 11:40:39;;;;;;;3.60;0.90;;;17.70;90.40;;;;;;5056642;28;20040;-52
2023/10/21 11:43:11;;;;;;;1.95;0.73;;;17.00;96.30;;;;;;5056536;28;20033;-48
2023/10/21 11:45:37;;;;;;;0.73;0.70;;;18.10;94.80;;;;;;5055753;28;20453;-50
2023/10/21 11:48:09;;;;;;;4.30;1.00;;;18.60;88.50;;;;;;5055219;28;20033;-50
2023/10/21 11:50:38;;;;;;;2.50;1.25;;;17.80;94.20;;;;;;5056142;28;20037;-48
2023/10/21 11:53:05;;;;;;;3.58;0.95;;;17.00;95.10;;;;;;5056499;28;20040;-51
2023/10/21 11:55:55;;;;;;;7.07;2.28;;;16.10;96.00;;;;;;5056080;28;20071;-48
2023/10/21 12:40:33;;;;;;;3.13;1.40;;;14.80;99.90;;;;;;5064701;28;20120;-51
2023/10/21 12:45:46;;;;;;;3.08;1.00;;;14.80;99.90;;;;;;5055581;28;20062;-50
2023/10/21 12:48:18;;;;;;;5.57;1.35;;;15.10;99.90;;;;;;5054464;28;20051;-49
2023/10/21 12:50:50;;;;;;;1.33;0.70;;;16.30;99.90;;;;;;5054189;28;20454;-52
2023/10/21 12:53:17;;;;;;;1.45;1.10;;;16.70;99.90;;;;;;5054202;28;20366;-48
2023/10/21 12:55:43;;;;;;;3.13;0.70;;;16.20;99.90;;;;;;5054126;28;20376;-51
2023/10/21 12:58:09;;;;;;;2.55;1.33;;;16.80;99.90;;;;;;5055310;28;20036;-50
2023/10/21 13:00:35;;;;;;;1.80;0.90;;;18.90;86.80;;;;;;5054921;28;20037;-51
2023/10/21 13:03:01;;;;;;;2.85;1.08;;;18.10;85.00;;;;;;5053705;28;20094;-50
2023/10/21 13:05:26;;;;;;;2.53;1.10;;;17.00;89.90;;;;;;5054877;28;20044;-49
2023/10/21 13:07:52;;;;;;;3.20;1.48;;;16.90;93.10;;;;;;5055119;28;20033;-53
2023/10/21 13:10:18;;;;;;;2.10;0.80;;;16.20;92.60;;;;;;5053798;28;20037;-51
2023/10/21 13:12:46;;;;;;;2.75;0.70;;;15.70;96.30;;;;;;5054829;28;20044;-50
2023/10/21 13:15:12;;;;;;;1.15;0.65;;;16.20;95.00;;;;;;5054721;28;20032;-51
2023/10/21 13:17:38;;;;;;;1.08;0.73;;;17.10;92.00;;;;;;5054840;28;20029;-52
2023/10/21 13:20:05;;;;;;;3.88;0.82;;;18.10;82.60;;;;;;5054706;28;20431;-53
2023/10/21 13:22:33;;;;;;;2.30;1.02;;;18.20;79.20;;;;;;5054298;28;20037;-51
2023/10/21 13:25:07;;;;;;;5.18;0.82;;;17.40;86.30;;;;;;5054377;28;20040;-51
2023/10/21 13:27:33;;;;;;;4.07;2.00;;;16.40;91.90;;;;;;5054509;28;20490;-51